sensor_id;sensor_type;location;lat;lon;timestamp;temperature;humidity
19930;DHT22;10127;47.780;9.606;2022-11-20T00:02:24;5.40;99.90
19930;DHT22;10127;47.780;9.606;2022-11-20T00:04:50;5.40;99.90
19930;DHT22;10127;47.780;9.606;2022-11-20T00:07:15;5.40;99.90
19930;DHT22;10127;47.780;9.606;2022-11-20T00:09:41;5.30;99.90
19930;DHT22;10127;47.780;9.606;2022-11-20T00:12:06;5.20;99.90
19930;DHT22;10127;47.780;9.606;2022-11-20T00:14:32;5.20;99.90
19930;DHT22;10127;47.780;9.606;2022-11-20T00:16:58;5.20;99.90
19930;DHT22;10127;47.780;9.606;2022-11-20T00:19:23;5.10;99.90
19930;DHT22;10127;47.780;9.606;2022-11-20T00:21:49;5.10;99.90
19930;DHT22;10127;47.780;9.606;2022-11-20T00:24:17;5.00;99.90
19930;DHT22;10127;47.780;9.606;2022-11-20T00:26:42;5.00;99.90
19930;DHT22;10127;47.780;9.606;2022-11-20T00:29:09;5.00;99.90
19930;DHT22;10127;47.780;9.606;2022-11-20T00:31:35;5.00;99.90
19930;DHT22;10127;47.780;9.606;2022-11-20T00:34:01;4.90;99.90
19930;DHT22;10127;47.780;9.606;2022-11-20T00:36:28;4.90;99.90
19930;DHT22;10127;47.780;9.606;2022-11-20T00:38:56;5.00;99.90
19930;DHT22;10127;47.780;9.606;2022-11-20T00:41:23;5.10;99.90
19930;DHT22;10127;47.780;9.606;2022-11-20T00:43:51;5.20;99.90
19930;DHT22;10127;47.780;9.606;2022-11-20T00:46:19;5.20;99.90
19930;DHT22;10127;47.780;9.606;2022-11-20T00:48:45;5.30;99.90
19930;DHT22;10127;47.780;9.606;2022-11-20T00:51:13;5.40;99.90
19930;DHT22;10127;47.780;9.606;2022-11-20T00:53:39;5.30;99.90
19930;DHT22;10127;47.780;9.606;2022-11-20T00:56:07;5.40;99.90
19930;DHT22;10127;47.780;9.606;2022-11-20T00:58:35;5.50;99.90
19930;DHT22;10127;47.780;9.606;2022-11-20T01:01:10;5.50;99.90
19930;DHT22;10127;47.780;9.606;2022-11-20T01:03:38;5.60;99.90
19930;DHT22;10127;47.780;9.606;2022-11-20T01:08:36;5.80;99.90
19930;DHT22;10127;47.780;9.606;2022-11-20T01:11:04;5.90;99.90
19930;DHT22;10127;47.780;9.606;2022-11-20T01:13:31;6.00;99.90
19930;DHT22;10127;47.780;9.606;2022-11-20T01:16:15;6.00;99.90
19930;DHT22;10127;47.780;9.606;2022-11-20T01:18:43;6.10;99.90
19930;DHT22;10127;47.780;9.606;2022-11-20T01:21:12;6.00;99.90
19930;DHT22;10127;47.780;9.606;2022-11-20T01:23:40;6.10;99.90
19930;DHT22;10127;47.780;9.606;2022-11-20T01:26:08;6.20;99.90
19930;DHT22;10127;47.780;9.606;2022-11-20T01:28:35;6.30;99.90
19930;DHT22;10127;47.780;9.606;2022-11-20T01:31:01;6.30;99.90
19930;DHT22;10127;47.780;9.606;2022-11-20T01:33:27;6.30;99.90
19930;DHT22;10127;47.780;9.606;2022-11-20T01:35:53;6.30;99.90
19930;DHT22;10127;47.780;9.606;2022-11-20T01:38:19;6.30;99.90
19930;DHT22;10127;47.780;9.606;2022-11-20T01:40:55;6.30;99.90
19930;DHT22;10127;47.780;9.606;2022-11-20T01:43:21;6.40;99.90
19930;DHT22;10127;47.780;9.606;2022-11-20T01:48:17;6.40;99.90
19930;DHT22;10127;47.780;9.606;2022-11-20T01:50:44;6.50;99.90
19930;DHT22;10127;47.780;9.606;2022-11-20T01:53:13;6.50;99.90
19930;DHT22;10127;47.780;9.606;2022-11-20T01:55:43;6.50;99.90
19930;DHT22;10127;47.780;9.606;2022-11-20T01:58:11;6.40;99.90
19930;DHT22;10127;47.780;9.606;2022-11-20T02:00:38;6.40;99.90
19930;DHT22;10127;47.780;9.606;2022-11-20T02:03:09;6.40;99.90
19930;DHT22;10127;47.780;9.606;2022-11-20T02:05:51;6.50;99.90
19930;DHT22;10127;47.780;9.606;2022-11-20T02:08:21;6.50;99.90
19930;DHT22;10127;47.780;9.606;2022-11-20T02:10:48;6.50;99.90
19930;DHT22;10127;47.780;9.606;2022-11-20T02:13:14;6.50;99.90
19930;DHT22;10127;47.780;9.606;2022-11-20T02:15:59;6.60;99.90
19930;DHT22;10127;47.780;9.606;2022-11-20T02:18:26;6.60;99.90
19930;DHT22;10127;47.780;9.606;2022-11-20T02:21:01;6.60;99.90
19930;DHT22;10127;47.780;9.606;2022-11-20T02:23:33;6.60;99.90
19930;DHT22;10127;47.780;9.606;2022-11-20T02:26:06;6.70;99.90
19930;DHT22;10127;47.780;9.606;2022-11-20T02:28:33;6.60;99.90
19930;DHT22;10127;47.780;9.606;2022-11-20T02:30:58;6.60;99.90
19930;DHT22;10127;47.780;9.606;2022-11-20T02:33:24;6.60;99.90
19930;DHT22;10127;47.780;9.606;2022-11-20T02:35:49;6.60;99.90
19930;DHT22;10127;47.780;9.606;2022-11-20T02:38:15;6.60;99.90
19930;DHT22;10127;47.780;9.606;2022-11-20T02:40:41;6.50;99.90
19930;DHT22;10127;47.780;9.606;2022-11-20T02:43:07;6.50;99.90
19930;DHT22;10127;47.780;9.606;2022-11-20T02:45:33;6.60;99.90
19930;DHT22;10127;47.780;9.606;2022-11-20T02:47:59;6.60;99.90
19930;DHT22;10127;47.780;9.606;2022-11-20T02:50:25;6.60;99.90
19930;DHT22;10127;47.780;9.606;2022-11-20T03:13:28;6.60;99.90
19930;DHT22;10127;47.780;9.606;2022-11-20T03:15:55;6.60;99.90
19930;DHT22;10127;47.780;9.606;2022-11-20T03:18:21;6.60;99.90
19930;DHT22;10127;47.780;9.606;2022-11-20T03:20:46;6.60;99.90
19930;DHT22;10127;47.780;9.606;2022-11-20T03:23:12;6.50;99.90
19930;DHT22;10127;47.780;9.606;2022-11-20T03:25:38;6.50;99.90
19930;DHT22;10127;47.780;9.606;2022-11-20T03:28:03;6.50;99.90
19930;DHT22;10127;47.780;9.606;2022-11-20T03:30:29;6.50;99.90
19930;DHT22;10127;47.780;9.606;2022-11-20T03:32:55;6.50;99.90
19930;DHT22;10127;47.780;9.606;2022-11-20T03:35:20;6.40;99.90
19930;DHT22;10127;47.780;9.606;2022-11-20T03:37:46;6.40;99.90
19930;DHT22;10127;47.780;9.606;2022-11-20T03:40:12;6.40;99.90
19930;DHT22;10127;47.780;9.606;2022-11-20T03:42:38;6.40;99.90
19930;DHT22;10127;47.780;9.606;2022-11-20T03:45:17;6.50;99.90
19930;DHT22;10127;47.780;9.606;2022-11-20T03:47:44;6.50;99.90
19930;DHT22;10127;47.780;9.606;2022-11-20T03:50:12;6.50;99.90
19930;DHT22;10127;47.780;9.606;2022-11-20T03:52:39;6.50;99.90
19930;DHT22;10127;47.780;9.606;2022-11-20T03:55:05;6.40;99.90
19930;DHT22;10127;47.780;9.606;2022-11-20T03:57:31;6.40;99.90
19930;DHT22;10127;47.780;9.606;2022-11-20T03:59:57;6.40;99.90
19930;DHT22;10127;47.780;9.606;2022-11-20T04:02:22;6.40;99.90
19930;DHT22;10127;47.780;9.606;2022-11-20T04:04:48;6.40;99.90
19930;DHT22;10127;47.780;9.606;2022-11-20T04:07:13;6.40;99.90
19930;DHT22;10127;47.780;9.606;2022-11-20T04:09:39;6.40;99.90
19930;DHT22;10127;47.780;9.606;2022-11-20T04:12:05;6.40;99.90
19930;DHT22;10127;47.780;9.606;2022-11-20T04:14:30;6.40;99.90
19930;DHT22;10127;47.780;9.606;2022-11-20T04:16:56;6.40;99.90
19930;DHT22;10127;47.780;9.606;2022-11-20T04:19:21;6.40;99.90
19930;DHT22;10127;47.780;9.606;2022-11-20T04:21:47;6.30;99.90
19930;DHT22;10127;47.780;9.606;2022-11-20T04:24:13;6.40;99.90
19930;DHT22;10127;47.780;9.606;2022-11-20T04:26:39;6.40;99.90
19930;DHT22;10127;47.780;9.606;2022-11-20T04:29:05;6.30;99.90
19930;DHT22;10127;47.780;9.606;2022-11-20T04:31:33;6.40;99.90
19930;DHT22;10127;47.780;9.606;2022-11-20T04:34:04;6.40;99.90
19930;DHT22;10127;47.780;9.606;2022-11-20T04:36:30;6.40;99.90
19930;DHT22;10127;47.780;9.606;2022-11-20T04:38:58;6.40;99.90
19930;DHT22;10127;47.780;9.606;2022-11-20T04:41:26;6.40;99.90
19930;DHT22;10127;47.780;9.606;2022-11-20T04:43:54;6.50;99.90
19930;DHT22;10127;47.780;9.606;2022-11-20T04:46:25;6.40;99.90
19930;DHT22;10127;47.780;9.606;2022-11-20T04:48:51;6.40;99.90
19930;DHT22;10127;47.780;9.606;2022-11-20T04:51:17;6.40;99.90
19930;DHT22;10127;47.780;9.606;2022-11-20T04:53:43;6.40;99.90
19930;DHT22;10127;47.780;9.606;2022-11-20T04:56:10;6.40;99.90
19930;DHT22;10127;47.780;9.606;2022-11-20T04:58:36;6.40;99.90
19930;DHT22;10127;47.780;9.606;2022-11-20T05:01:03;6.50;99.90
19930;DHT22;10127;47.780;9.606;2022-11-20T05:03:30;6.50;99.90
19930;DHT22;10127;47.780;9.606;2022-11-20T05:05:55;6.50;99.90
19930;DHT22;10127;47.780;9.606;2022-11-20T05:08:21;6.30;99.90
19930;DHT22;10127;47.780;9.606;2022-11-20T05:10:47;6.30;99.90
19930;DHT22;10127;47.780;9.606;2022-11-20T05:13:13;6.20;99.90
19930;DHT22;10127;47.780;9.606;2022-11-20T05:15:38;6.00;99.90
19930;DHT22;10127;47.780;9.606;2022-11-20T05:18:04;5.90;99.90
19930;DHT22;10127;47.780;9.606;2022-11-20T05:20:29;5.90;99.90
19930;DHT22;10127;47.780;9.606;2022-11-20T05:22:58;5.90;99.90
19930;DHT22;10127;47.780;9.606;2022-11-20T05:25:24;5.80;99.90
19930;DHT22;10127;47.780;9.606;2022-11-20T05:27:49;5.80;99.90
19930;DHT22;10127;47.780;9.606;2022-11-20T05:30:15;5.70;99.90
19930;DHT22;10127;47.780;9.606;2022-11-20T05:32:41;5.70;99.90
19930;DHT22;10127;47.780;9.606;2022-11-20T05:35:07;5.70;99.90
19930;DHT22;10127;47.780;9.606;2022-11-20T05:37:32;5.60;99.90
19930;DHT22;10127;47.780;9.606;2022-11-20T05:39:58;5.60;99.90
19930;DHT22;10127;47.780;9.606;2022-11-20T05:42:24;5.60;99.90
19930;DHT22;10127;47.780;9.606;2022-11-20T05:45:00;5.60;99.90
19930;DHT22;10127;47.780;9.606;2022-11-20T05:47:27;5.60;99.90
19930;DHT22;10127;47.780;9.606;2022-11-20T05:49:53;5.60;99.90
19930;DHT22;10127;47.780;9.606;2022-11-20T05:52:19;5.60;99.90
19930;DHT22;10127;47.780;9.606;2022-11-20T05:54:44;5.70;99.90
19930;DHT22;10127;47.780;9.606;2022-11-20T05:57:10;5.70;99.90
19930;DHT22;10127;47.780;9.606;2022-11-20T05:59:36;5.60;99.90
19930;DHT22;10127;47.780;9.606;2022-11-20T06:02:01;5.60;99.90
19930;DHT22;10127;47.780;9.606;2022-11-20T06:04:27;5.60;99.90
19930;DHT22;10127;47.780;9.606;2022-11-20T06:06:52;5.60;99.90
19930;DHT22;10127;47.780;9.606;2022-11-20T06:09:18;5.50;99.90
19930;DHT22;10127;47.780;9.606;2022-11-20T06:11:44;5.50;99.90
19930;DHT22;10127;47.780;9.606;2022-11-20T06:14:09;5.50;99.90
19930;DHT22;10127;47.780;9.606;2022-11-20T06:16:35;5.70;99.90
19930;DHT22;10127;47.780;9.606;2022-11-20T06:19:00;5.70;99.90
19930;DHT22;10127;47.780;9.606;2022-11-20T06:21:26;5.80;99.90
19930;DHT22;10127;47.780;9.606;2022-11-20T06:23:52;5.90;99.90
19930;DHT22;10127;47.780;9.606;2022-11-20T06:26:23;6.00;99.90
19930;DHT22;10127;47.780;9.606;2022-11-20T06:28:50;6.10;99.90
19930;DHT22;10127;47.780;9.606;2022-11-20T06:31:19;6.20;99.90
19930;DHT22;10127;47.780;9.606;2022-11-20T06:33:45;6.20;99.90
19930;DHT22;10127;47.780;9.606;2022-11-20T06:36:12;6.20;99.90
19930;DHT22;10127;47.780;9.606;2022-11-20T06:38:38;6.30;99.90
19930;DHT22;10127;47.780;9.606;2022-11-20T06:41:05;6.20;99.90
19930;DHT22;10127;47.780;9.606;2022-11-20T06:43:31;6.20;99.90
19930;DHT22;10127;47.780;9.606;2022-11-20T06:45:58;6.20;99.90
19930;DHT22;10127;47.780;9.606;2022-11-20T06:48:26;6.20;99.90
19930;DHT22;10127;47.780;9.606;2022-11-20T06:50:51;6.20;99.90
19930;DHT22;10127;47.780;9.606;2022-11-20T06:53:17;6.30;99.90
19930;DHT22;10127;47.780;9.606;2022-11-20T06:55:44;6.40;99.90
19930;DHT22;10127;47.780;9.606;2022-11-20T06:58:10;6.40;99.90
19930;DHT22;10127;47.780;9.606;2022-11-20T07:00:35;6.50;99.90
19930;DHT22;10127;47.780;9.606;2022-11-20T07:03:05;6.50;99.90
19930;DHT22;10127;47.780;9.606;2022-11-20T07:05:30;6.50;99.90
19930;DHT22;10127;47.780;9.606;2022-11-20T07:07:57;6.60;99.90
19930;DHT22;10127;47.780;9.606;2022-11-20T07:10:23;6.60;99.90
19930;DHT22;10127;47.780;9.606;2022-11-20T07:12:52;6.60;99.90
19930;DHT22;10127;47.780;9.606;2022-11-20T07:15:19;6.70;99.90
19930;DHT22;10127;47.780;9.606;2022-11-20T07:17:45;6.80;99.90
19930;DHT22;10127;47.780;9.606;2022-11-20T07:20:12;6.80;99.90
19930;DHT22;10127;47.780;9.606;2022-11-20T07:22:37;6.80;99.90
19930;DHT22;10127;47.780;9.606;2022-11-20T07:25:04;6.80;99.90
19930;DHT22;10127;47.780;9.606;2022-11-20T07:27:30;6.90;99.90
19930;DHT22;10127;47.780;9.606;2022-11-20T07:29:55;6.90;99.90
19930;DHT22;10127;47.780;9.606;2022-11-20T07:32:21;7.00;99.90
19930;DHT22;10127;47.780;9.606;2022-11-20T07:34:47;7.00;99.90
19930;DHT22;10127;47.780;9.606;2022-11-20T07:37:13;7.00;99.90
19930;DHT22;10127;47.780;9.606;2022-11-20T07:39:39;7.00;99.90
19930;DHT22;10127;47.780;9.606;2022-11-20T07:42:06;7.00;99.90
19930;DHT22;10127;47.780;9.606;2022-11-20T07:44:32;7.00;99.90
19930;DHT22;10127;47.780;9.606;2022-11-20T07:46:58;7.10;99.90
19930;DHT22;10127;47.780;9.606;2022-11-20T07:49:24;7.10;99.90
19930;DHT22;10127;47.780;9.606;2022-11-20T07:51:53;7.10;99.90
19930;DHT22;10127;47.780;9.606;2022-11-20T07:54:20;7.10;99.90
19930;DHT22;10127;47.780;9.606;2022-11-20T07:56:46;7.10;99.90
19930;DHT22;10127;47.780;9.606;2022-11-20T07:59:12;7.20;99.90
19930;DHT22;10127;47.780;9.606;2022-11-20T08:01:39;7.30;99.90
19930;DHT22;10127;47.780;9.606;2022-11-20T08:04:04;7.40;99.90
19930;DHT22;10127;47.780;9.606;2022-11-20T08:06:30;7.30;99.90
19930;DHT22;10127;47.780;9.606;2022-11-20T08:08:56;7.30;99.90
19930;DHT22;10127;47.780;9.606;2022-11-20T08:11:22;7.30;99.90
19930;DHT22;10127;47.780;9.606;2022-11-20T08:14:06;7.30;99.90
19930;DHT22;10127;47.780;9.606;2022-11-20T08:16:43;7.30;99.90
19930;DHT22;10127;47.780;9.606;2022-11-20T08:19:09;7.30;99.90
19930;DHT22;10127;47.780;9.606;2022-11-20T08:21:35;7.30;99.90
19930;DHT22;10127;47.780;9.606;2022-11-20T08:24:01;7.40;99.90
19930;DHT22;10127;47.780;9.606;2022-11-20T08:26:27;7.40;99.90
19930;DHT22;10127;47.780;9.606;2022-11-20T08:28:54;7.30;99.90
19930;DHT22;10127;47.780;9.606;2022-11-20T08:31:21;7.40;99.90
19930;DHT22;10127;47.780;9.606;2022-11-20T08:33:46;7.30;99.90
19930;DHT22;10127;47.780;9.606;2022-11-20T08:36:12;7.40;99.90
19930;DHT22;10127;47.780;9.606;2022-11-20T08:38:38;7.40;99.90
19930;DHT22;10127;47.780;9.606;2022-11-20T08:41:05;7.30;99.90
19930;DHT22;10127;47.780;9.606;2022-11-20T08:43:58;7.30;99.90
19930;DHT22;10127;47.780;9.606;2022-11-20T08:46:28;7.30;99.90
19930;DHT22;10127;47.780;9.606;2022-11-20T08:48:56;7.40;99.90
19930;DHT22;10127;47.780;9.606;2022-11-20T08:51:21;7.40;99.90
19930;DHT22;10127;47.780;9.606;2022-11-20T08:53:47;7.50;99.90
19930;DHT22;10127;47.780;9.606;2022-11-20T08:56:14;7.50;99.90
19930;DHT22;10127;47.780;9.606;2022-11-20T08:58:40;7.60;99.90
19930;DHT22;10127;47.780;9.606;2022-11-20T09:01:05;7.60;99.90
19930;DHT22;10127;47.780;9.606;2022-11-20T09:03:31;7.70;99.90
19930;DHT22;10127;47.780;9.606;2022-11-20T09:06:02;7.70;99.90
19930;DHT22;10127;47.780;9.606;2022-11-20T09:08:28;7.70;99.90
19930;DHT22;10127;47.780;9.606;2022-11-20T09:10:55;7.50;99.90
19930;DHT22;10127;47.780;9.606;2022-11-20T09:13:22;7.40;99.90
19930;DHT22;10127;47.780;9.606;2022-11-20T09:16:00;7.30;99.90
19930;DHT22;10127;47.780;9.606;2022-11-20T09:18:27;7.20;99.90
19930;DHT22;10127;47.780;9.606;2022-11-20T09:20:58;7.10;99.90
19930;DHT22;10127;47.780;9.606;2022-11-20T09:23:24;7.10;99.90
19930;DHT22;10127;47.780;9.606;2022-11-20T09:25:49;7.10;99.90
19930;DHT22;10127;47.780;9.606;2022-11-20T09:28:15;7.10;99.90
19930;DHT22;10127;47.780;9.606;2022-11-20T09:30:42;7.10;99.90
19930;DHT22;10127;47.780;9.606;2022-11-20T09:33:08;7.10;99.90
19930;DHT22;10127;47.780;9.606;2022-11-20T09:35:34;7.20;99.90
19930;DHT22;10127;47.780;9.606;2022-11-20T09:38:07;7.20;99.90
19930;DHT22;10127;47.780;9.606;2022-11-20T09:40:34;7.20;99.90
19930;DHT22;10127;47.780;9.606;2022-11-20T09:43:46;7.20;99.90
19930;DHT22;10127;47.780;9.606;2022-11-20T09:54:50;7.40;99.90
19930;DHT22;10127;47.780;9.606;2022-11-20T09:57:21;7.60;99.90
19930;DHT22;10127;47.780;9.606;2022-11-20T09:59:56;7.70;99.90
19930;DHT22;10127;47.780;9.606;2022-11-20T10:07:47;8.40;99.90
19930;DHT22;10127;47.780;9.606;2022-11-20T10:10:16;8.60;99.90
19930;DHT22;10127;47.780;9.606;2022-11-20T10:13:04;8.80;99.90
19930;DHT22;10127;47.780;9.606;2022-11-20T10:15:55;8.90;99.90
19930;DHT22;10127;47.780;9.606;2022-11-20T10:23:59;9.10;99.90
19930;DHT22;10127;47.780;9.606;2022-11-20T10:26:49;9.10;99.90
19930;DHT22;10127;47.780;9.606;2022-11-20T10:29:17;9.00;99.90
19930;DHT22;10127;47.780;9.606;2022-11-20T10:31:47;9.00;99.90
19930;DHT22;10127;47.780;9.606;2022-11-20T10:35:01;8.90;99.90
19930;DHT22;10127;47.780;9.606;2022-11-20T10:37:09;9.00;99.90
19930;DHT22;10127;47.780;9.606;2022-11-20T10:39:51;9.00;99.90
19930;DHT22;10127;47.780;9.606;2022-11-20T10:42:34;9.30;99.90
19930;DHT22;10127;47.780;9.606;2022-11-20T10:54:19;9.40;99.90
19930;DHT22;10127;47.780;9.606;2022-11-20T10:56:51;9.50;99.90
19930;DHT22;10127;47.780;9.606;2022-11-20T11:02:31;9.60;99.90
19930;DHT22;10127;47.780;9.606;2022-11-20T11:04:58;9.50;99.90
19930;DHT22;10127;47.780;9.606;2022-11-20T11:07:38;9.40;99.90
19930;DHT22;10127;47.780;9.606;2022-11-20T11:12:44;9.40;99.90
19930;DHT22;10127;47.780;9.606;2022-11-20T11:15:15;9.40;99.90
19930;DHT22;10127;47.780;9.606;2022-11-20T11:17:49;9.30;99.90
19930;DHT22;10127;47.780;9.606;2022-11-20T11:20:25;9.40;99.90
19930;DHT22;10127;47.780;9.606;2022-11-20T11:22:56;9.00;99.90
19930;DHT22;10127;47.780;9.606;2022-11-20T11:25:29;9.00;99.90
19930;DHT22;10127;47.780;9.606;2022-11-20T11:27:58;9.00;99.90
19930;DHT22;10127;47.780;9.606;2022-11-20T11:30:25;9.00;99.90
19930;DHT22;10127;47.780;9.606;2022-11-20T11:33:03;8.90;99.90
19930;DHT22;10127;47.780;9.606;2022-11-20T11:35:30;9.00;99.90
19930;DHT22;10127;47.780;9.606;2022-11-20T11:38:05;9.00;99.90
19930;DHT22;10127;47.780;9.606;2022-11-20T11:40:35;9.10;99.90
19930;DHT22;10127;47.780;9.606;2022-11-20T11:43:05;9.10;99.90
19930;DHT22;10127;47.780;9.606;2022-11-20T11:45:55;9.20;99.90
19930;DHT22;10127;47.780;9.606;2022-11-20T11:48:21;9.20;99.90
19930;DHT22;10127;47.780;9.606;2022-11-20T11:50:50;9.20;99.90
19930;DHT22;10127;47.780;9.606;2022-11-20T11:53:19;9.10;99.90
19930;DHT22;10127;47.780;9.606;2022-11-20T11:58:47;8.90;99.90
19930;DHT22;10127;47.780;9.606;2022-11-20T12:01:32;8.90;99.90
19930;DHT22;10127;47.780;9.606;2022-11-20T12:06:53;8.90;99.90
19930;DHT22;10127;47.780;9.606;2022-11-20T12:09:34;8.80;99.90
19930;DHT22;10127;47.780;9.606;2022-11-20T12:12:10;8.90;99.90
19930;DHT22;10127;47.780;9.606;2022-11-20T12:14:41;8.90;99.90
19930;DHT22;10127;47.780;9.606;2022-11-20T12:17:12;9.00;99.90
19930;DHT22;10127;47.780;9.606;2022-11-20T12:19:39;9.00;99.90
19930;DHT22;10127;47.780;9.606;2022-11-20T12:30:31;8.70;99.90
19930;DHT22;10127;47.780;9.606;2022-11-20T12:35:42;8.60;99.90
19930;DHT22;10127;47.780;9.606;2022-11-20T12:47:42;9.00;99.90
19930;DHT22;10127;47.780;9.606;2022-11-20T12:53:27;9.20;99.90
19930;DHT22;10127;47.780;9.606;2022-11-20T13:01:40;9.30;99.90
19930;DHT22;10127;47.780;9.606;2022-11-20T13:07:13;9.30;99.90
19930;DHT22;10127;47.780;9.606;2022-11-20T13:09:48;9.20;99.90
19930;DHT22;10127;47.780;9.606;2022-11-20T13:18:13;9.40;99.90
19930;DHT22;10127;47.780;9.606;2022-11-20T13:20:44;9.30;99.90
19930;DHT22;10127;47.780;9.606;2022-11-20T13:23:11;9.00;99.90
19930;DHT22;10127;47.780;9.606;2022-11-20T13:25:38;8.80;99.90
19930;DHT22;10127;47.780;9.606;2022-11-20T13:30:48;8.60;99.90
19930;DHT22;10127;47.780;9.606;2022-11-20T13:33:32;8.70;99.90
19930;DHT22;10127;47.780;9.606;2022-11-20T13:36:02;8.80;99.90
19930;DHT22;10127;47.780;9.606;2022-11-20T13:38:28;8.70;99.90
19930;DHT22;10127;47.780;9.606;2022-11-20T13:40:59;8.70;99.90
19930;DHT22;10127;47.780;9.606;2022-11-20T13:43:47;8.70;99.90
19930;DHT22;10127;47.780;9.606;2022-11-20T13:46:13;8.60;99.90
19930;DHT22;10127;47.780;9.606;2022-11-20T13:48:42;8.50;99.90
19930;DHT22;10127;47.780;9.606;2022-11-20T13:54:21;8.70;99.90
19930;DHT22;10127;47.780;9.606;2022-11-20T13:57:26;8.80;99.90
19930;DHT22;10127;47.780;9.606;2022-11-20T13:59:58;9.00;99.90
19930;DHT22;10127;47.780;9.606;2022-11-20T14:02:29;9.00;99.90
19930;DHT22;10127;47.780;9.606;2022-11-20T14:04:58;8.90;99.90
19930;DHT22;10127;47.780;9.606;2022-11-20T14:07:31;8.90;99.90
19930;DHT22;10127;47.780;9.606;2022-11-20T14:09:58;8.80;99.90
19930;DHT22;10127;47.780;9.606;2022-11-20T14:12:33;8.90;99.90
19930;DHT22;10127;47.780;9.606;2022-11-20T14:14:59;9.00;99.90
19930;DHT22;10127;47.780;9.606;2022-11-20T14:19:55;8.80;99.90
19930;DHT22;10127;47.780;9.606;2022-11-20T14:22:25;8.80;99.90
19930;DHT22;10127;47.780;9.606;2022-11-20T14:27:43;8.70;99.90
19930;DHT22;10127;47.780;9.606;2022-11-20T14:30:15;8.70;99.90
19930;DHT22;10127;47.780;9.606;2022-11-20T14:32:43;8.60;99.90
19930;DHT22;10127;47.780;9.606;2022-11-20T14:35:14;8.50;99.90
19930;DHT22;10127;47.780;9.606;2022-11-20T14:37:44;8.40;99.90
19930;DHT22;10127;47.780;9.606;2022-11-20T14:40:24;8.30;99.90
19930;DHT22;10127;47.780;9.606;2022-11-20T14:42:50;8.40;99.90
19930;DHT22;10127;47.780;9.606;2022-11-20T14:45:16;8.40;99.90
19930;DHT22;10127;47.780;9.606;2022-11-20T14:47:42;8.30;99.90
19930;DHT22;10127;47.780;9.606;2022-11-20T14:50:35;8.30;99.90
19930;DHT22;10127;47.780;9.606;2022-11-20T14:53:00;8.30;99.90
19930;DHT22;10127;47.780;9.606;2022-11-20T14:55:34;8.30;99.90
19930;DHT22;10127;47.780;9.606;2022-11-20T14:58:06;8.30;99.90
19930;DHT22;10127;47.780;9.606;2022-11-20T15:00:33;8.20;99.90
19930;DHT22;10127;47.780;9.606;2022-11-20T15:03:00;8.20;99.90
19930;DHT22;10127;47.780;9.606;2022-11-20T15:05:48;8.10;99.90
19930;DHT22;10127;47.780;9.606;2022-11-20T15:08:14;8.10;99.90
19930;DHT22;10127;47.780;9.606;2022-11-20T15:10:48;8.00;99.90
19930;DHT22;10127;47.780;9.606;2022-11-20T15:13:36;8.00;99.90
19930;DHT22;10127;47.780;9.606;2022-11-20T15:16:04;7.90;99.90
19930;DHT22;10127;47.780;9.606;2022-11-20T15:18:38;7.80;99.90
19930;DHT22;10127;47.780;9.606;2022-11-20T15:21:11;7.80;99.90
19930;DHT22;10127;47.780;9.606;2022-11-20T15:23:37;7.80;99.90
19930;DHT22;10127;47.780;9.606;2022-11-20T15:26:11;7.70;99.90
19930;DHT22;10127;47.780;9.606;2022-11-20T15:28:42;7.60;99.90
19930;DHT22;10127;47.780;9.606;2022-11-20T15:31:12;7.50;99.90
19930;DHT22;10127;47.780;9.606;2022-11-20T15:33:38;7.50;99.90
19930;DHT22;10127;47.780;9.606;2022-11-20T15:36:04;7.50;99.90
19930;DHT22;10127;47.780;9.606;2022-11-20T15:38:30;7.40;99.90
19930;DHT22;10127;47.780;9.606;2022-11-20T15:40:56;7.40;99.90
19930;DHT22;10127;47.780;9.606;2022-11-20T15:43:22;7.40;99.90
19930;DHT22;10127;47.780;9.606;2022-11-20T15:46:14;7.40;99.90
19930;DHT22;10127;47.780;9.606;2022-11-20T15:48:43;7.30;99.90
19930;DHT22;10127;47.780;9.606;2022-11-20T15:53:35;7.20;99.90
19930;DHT22;10127;47.780;9.606;2022-11-20T15:56:01;7.30;99.90
19930;DHT22;10127;47.780;9.606;2022-11-20T15:58:27;7.30;99.90
19930;DHT22;10127;47.780;9.606;2022-11-20T16:00:53;7.20;99.90
19930;DHT22;10127;47.780;9.606;2022-11-20T16:03:19;7.30;99.90
19930;DHT22;10127;47.780;9.606;2022-11-20T16:05:45;7.20;99.90
19930;DHT22;10127;47.780;9.606;2022-11-20T16:08:10;7.10;99.90
19930;DHT22;10127;47.780;9.606;2022-11-20T16:10:36;7.10;99.90
19930;DHT22;10127;47.780;9.606;2022-11-20T16:13:02;7.00;99.90
19930;DHT22;10127;47.780;9.606;2022-11-20T16:15:57;7.00;99.90
19930;DHT22;10127;47.780;9.606;2022-11-20T16:18:23;7.00;99.90
19930;DHT22;10127;47.780;9.606;2022-11-20T16:20:51;7.10;99.90
19930;DHT22;10127;47.780;9.606;2022-11-20T16:23:17;7.10;99.90
19930;DHT22;10127;47.780;9.606;2022-11-20T16:25:44;7.10;99.90
19930;DHT22;10127;47.780;9.606;2022-11-20T16:28:10;6.90;99.90
19930;DHT22;10127;47.780;9.606;2022-11-20T16:30:36;6.80;99.90
19930;DHT22;10127;47.780;9.606;2022-11-20T16:33:03;6.80;99.90
19930;DHT22;10127;47.780;9.606;2022-11-20T16:35:30;6.70;99.90
19930;DHT22;10127;47.780;9.606;2022-11-20T16:37:56;6.70;99.90
19930;DHT22;10127;47.780;9.606;2022-11-20T16:40:22;6.60;99.90
19930;DHT22;10127;47.780;9.606;2022-11-20T16:42:48;6.60;99.90
19930;DHT22;10127;47.780;9.606;2022-11-20T16:45:14;6.60;99.90
19930;DHT22;10127;47.780;9.606;2022-11-20T16:47:41;6.60;99.90
19930;DHT22;10127;47.780;9.606;2022-11-20T16:50:07;6.60;99.90
19930;DHT22;10127;47.780;9.606;2022-11-20T16:52:33;6.60;99.90
19930;DHT22;10127;47.780;9.606;2022-11-20T16:54:59;6.60;99.90
19930;DHT22;10127;47.780;9.606;2022-11-20T16:57:27;6.50;99.90
19930;DHT22;10127;47.780;9.606;2022-11-20T16:59:54;6.50;99.90
19930;DHT22;10127;47.780;9.606;2022-11-20T17:02:19;6.40;99.90
19930;DHT22;10127;47.780;9.606;2022-11-20T17:04:45;6.50;99.90
19930;DHT22;10127;47.780;9.606;2022-11-20T17:07:10;6.50;99.90
19930;DHT22;10127;47.780;9.606;2022-11-20T17:09:37;6.50;99.90
19930;DHT22;10127;47.780;9.606;2022-11-20T17:12:03;6.60;99.90
19930;DHT22;10127;47.780;9.606;2022-11-20T17:14:28;6.60;99.90
19930;DHT22;10127;47.780;9.606;2022-11-20T17:16:54;6.60;99.90
19930;DHT22;10127;47.780;9.606;2022-11-20T17:19:19;6.70;99.90
19930;DHT22;10127;47.780;9.606;2022-11-20T17:21:45;6.70;99.90
19930;DHT22;10127;47.780;9.606;2022-11-20T17:24:12;6.60;99.90
19930;DHT22;10127;47.780;9.606;2022-11-20T17:26:39;6.60;99.90
19930;DHT22;10127;47.780;9.606;2022-11-20T17:29:06;6.40;99.90
19930;DHT22;10127;47.780;9.606;2022-11-20T17:31:33;6.40;99.90
19930;DHT22;10127;47.780;9.606;2022-11-20T17:33:59;6.20;99.90
19930;DHT22;10127;47.780;9.606;2022-11-20T17:36:27;6.20;99.90
19930;DHT22;10127;47.780;9.606;2022-11-20T17:38:53;6.20;99.90
19930;DHT22;10127;47.780;9.606;2022-11-20T17:41:21;6.20;99.90
19930;DHT22;10127;47.780;9.606;2022-11-20T17:43:48;6.30;99.90
19930;DHT22;10127;47.780;9.606;2022-11-20T17:46:17;6.30;99.90
19930;DHT22;10127;47.780;9.606;2022-11-20T17:48:44;6.20;99.90
19930;DHT22;10127;47.780;9.606;2022-11-20T17:51:12;6.30;99.90
19930;DHT22;10127;47.780;9.606;2022-11-20T17:53:40;6.20;99.90